Aberdeen / Amory, MS

11:29 AM CST on November 22, 2019 (GMT -0600)
Aberdeen / Amory

Weather History for KM40 - October, 2019

Change the Weather History Date:

Saturday, October 12, 2019

  Actual Average (KCBM) Record (KCBM)
Temperature  
Mean Temperature 53 °F -  
Max Temperature 64 °F 74 °F 87 °F (1997)
Min Temperature 42 °F 51 °F 37 °F (2000)
Degree Days  
Heating Degree Days 12    
Growing Degree Days 3 (Base 50)    
Moisture  
Dew Point 39 °F    
Average Humidity 60    
Maximum Humidity 87    
Minimum Humidity 52    
Precipitation  
Precipitation 0.00 in - - ()
Sea Level Pressure  
Sea Level Pressure 30.15 in    
Wind  
Wind Speed 8 mph ()    
Max Wind Speed 14 mph    
Max Gust Speed 23 mph    
Visibility 9.7 miles    
Events      
Averages and records for this station are not official NWS values.
T = Trace of Precipitation, MM = Missing Value Source: Averaged Metar Reports

Daily Weather History Graph

Daily Weather History Graph

Search for Another Location

Airport or City:

Astronomy

Oct. 12, 2019 Rise Set
Actual Time 6:56 AM CDT 6:23 PM CDT
Civil Twilight 6:31 AM CDT 6:49 PM CDT
Nautical Twilight 6:02 AM CDT 7:17 PM CDT
Astronomical Twilight 5:33 AM CDT 7:46 PM CDT
Moon 6:14 PM CDT (10/12) 5:40 AM CDT (10/12)
Length of Visible Light 12h 17m
Length of Day
11h 27m
Waxing Gibbous, 99% of the Moon is Illuminated
Oct 12
Waxing Gibbous
Oct 13
Full
Oct 21
Last Quarter
Oct 27
New
Nov 4
First Quarter

Hourly Weather History & Observations

Time (CDT) Temp. Dew Point Humidity Pressure Visibility Wind Dir Wind Speed Gust Speed Precip Events Conditions
12:15 AM 53.6 °F 37.4 °F 54% 30.15 in 10.0 mi NNW 9.2 mph 17.3 mph N/A   Overcast
12:35 AM 53.6 °F 37.4 °F 54% 30.15 in 8.0 mi NNW 13.8 mph - N/A   Overcast
12:55 AM 51.8 °F 35.6 °F 54% 30.16 in 7.0 mi NNW 11.5 mph 23.0 mph N/A   Light Drizzle
1:15 AM 51.8 °F 35.6 °F 54% 30.16 in 8.0 mi NNW 9.2 mph 16.1 mph N/A   Overcast
1:35 AM 51.8 °F 35.6 °F 54% 30.16 in 10.0 mi North 13.8 mph - N/A   Overcast
2:15 AM 50.0 °F 35.6 °F 58% 30.16 in 10.0 mi NNW 12.7 mph 19.6 mph N/A   Overcast
2:35 AM 50.0 °F 33.8 °F 54% 30.16 in 10.0 mi North 11.5 mph - N/A   Overcast
2:55 AM 50.0 °F 33.8 °F 54% 30.15 in 10.0 mi North 10.4 mph 17.3 mph N/A   Overcast
3:15 AM 50.0 °F 33.8 °F 54% 30.16 in 10.0 mi North 12.7 mph 18.4 mph N/A   Overcast
3:35 AM 50.0 °F 33.8 °F 54% 30.15 in 10.0 mi North 13.8 mph 23.0 mph N/A   Overcast
3:55 AM 50.0 °F 33.8 °F 54% 30.16 in 10.0 mi North 13.8 mph 19.6 mph N/A   Overcast
4:15 AM 50.0 °F 33.8 °F 54% 30.17 in 10.0 mi North 11.5 mph 20.7 mph N/A   Overcast
4:35 AM 50.0 °F 33.8 °F 54% 30.17 in 10.0 mi North 9.2 mph 17.3 mph N/A   Overcast
4:55 AM 50.0 °F 33.8 °F 54% 30.18 in 10.0 mi North 12.7 mph - N/A   Overcast
5:15 AM 48.2 °F 33.8 °F 58% 30.19 in 10.0 mi North 12.7 mph - N/A   Overcast
5:35 AM 48.2 °F 32.0 °F 54% 30.18 in 10.0 mi North 13.8 mph - N/A   Overcast
5:55 AM 48.2 °F 32.0 °F 54% 30.19 in 10.0 mi North 10.4 mph - N/A   Overcast
6:15 AM 48.2 °F 39.2 °F 71% 30.20 in 10.0 mi North 8.1 mph - N/A   Overcast
6:35 AM 48.2 °F 37.4 °F 66% 30.20 in 10.0 mi North 11.5 mph 18.4 mph N/A   Overcast
6:55 AM 48.2 °F 37.4 °F 66% 30.20 in 10.0 mi North 11.5 mph - N/A   Overcast
7:15 AM 48.2 °F 35.6 °F 62% 30.20 in 10.0 mi North 10.4 mph - N/A   Overcast
7:55 AM 48.2 °F 37.4 °F 66% 30.20 in 10.0 mi North 9.2 mph - N/A   Overcast
8:15 AM 48.2 °F 37.4 °F 66% 30.21 in 10.0 mi NNW 10.4 mph - N/A   Overcast
8:35 AM 48.2 °F 37.4 °F 66% 30.21 in 10.0 mi North 13.8 mph - N/A   Overcast
8:55 AM 50.0 °F 37.4 °F 62% 30.21 in 10.0 mi North 10.4 mph - N/A   Overcast
9:15 AM 50.0 °F 39.2 °F 66% 30.20 in 10.0 mi North 9.2 mph 17.3 mph N/A   Overcast
9:35 AM 51.8 °F 39.2 °F 62% 30.21 in 10.0 mi North 9.2 mph - N/A   Mostly Cloudy
9:55 AM 53.6 °F 39.2 °F 58% 30.21 in 10.0 mi NNE 9.2 mph 16.1 mph N/A   Scattered Clouds
10:15 AM 53.6 °F 39.2 °F 58% 30.21 in 10.0 mi North 12.7 mph - N/A   Partly Cloudy
10:35 AM 55.4 °F 41.0 °F 58% 30.22 in 10.0 mi North 10.4 mph - N/A   Clear
10:55 AM 55.4 °F 42.8 °F 63% 30.21 in 10.0 mi North 9.2 mph - N/A   Clear
11:15 AM 57.2 °F 41.0 °F 55% 30.21 in 10.0 mi NNE 8.1 mph 17.3 mph N/A   Mostly Cloudy
11:35 AM 57.2 °F 42.8 °F 59% 30.21 in 10.0 mi NNW 10.4 mph - N/A   Partly Cloudy
11:55 AM 59.0 °F 42.8 °F 55% 30.20 in 10.0 mi Variable 6.9 mph 13.8 mph N/A   Clear
12:15 PM 59.0 °F 42.8 °F 55% 30.20 in 10.0 mi NNE 9.2 mph - N/A   Clear
12:35 PM 60.8 °F 44.6 °F 55% 30.19 in 10.0 mi NNW 8.1 mph - N/A   Clear
12:55 PM 60.8 °F 44.6 °F 55% 30.18 in 10.0 mi North 10.4 mph - N/A   Clear
1:35 PM 62.6 °F 44.6 °F 52% 30.16 in 10.0 mi NNW 9.2 mph - N/A   Clear
1:55 PM 64.4 °F 46.4 °F 52% 30.15 in 10.0 mi North 9.2 mph - N/A   Clear
2:15 PM 62.6 °F 46.4 °F 55% 30.15 in 10.0 mi Variable 6.9 mph - N/A   Partly Cloudy
2:35 PM 64.4 °F 46.4 °F 52% 30.14 in 10.0 mi Variable 6.9 mph 12.7 mph N/A   Clear
2:55 PM 64.4 °F 48.2 °F 56% 30.13 in 10.0 mi NNE 10.4 mph - N/A   Clear
3:15 PM 64.4 °F 48.2 °F 56% 30.13 in 10.0 mi North 9.2 mph - N/A   Clear
3:35 PM 64.4 °F 48.2 °F 56% 30.13 in 10.0 mi NNW 8.1 mph 17.3 mph N/A   Clear
3:55 PM 64.4 °F 48.2 °F 56% 30.12 in 10.0 mi NNE 10.4 mph - N/A   Clear
4:15 PM 64.4 °F 48.2 °F 56% 30.12 in 10.0 mi North 5.8 mph 11.5 mph N/A   Clear
4:35 PM 64.4 °F 48.2 °F 56% 30.11 in 10.0 mi North 8.1 mph - N/A   Clear
4:55 PM 64.4 °F 48.2 °F 56% 30.11 in 10.0 mi NNE 5.8 mph - N/A   Clear
5:15 PM 64.4 °F 48.2 °F 56% 30.11 in 10.0 mi Variable 4.6 mph - N/A   Clear
5:35 PM 62.6 °F 46.4 °F 55% 30.11 in 10.0 mi North 5.8 mph - N/A   Clear
5:55 PM 60.8 °F 48.2 °F 63% 30.10 in 10.0 mi Calm Calm - N/A   Clear
6:15 PM 57.2 °F 46.4 °F 67% 30.10 in 10.0 mi Calm Calm - N/A   Clear
6:35 PM 53.6 °F 46.4 °F 77% 30.10 in 10.0 mi Calm Calm - N/A   Clear
6:55 PM 50.0 °F 44.6 °F 82% 30.10 in 10.0 mi Calm Calm - N/A   Clear
7:15 PM 48.2 °F 44.6 °F 87% 30.10 in 10.0 mi Calm Calm - N/A   Clear
7:35 PM 48.2 °F 44.6 °F 87% 30.11 in 10.0 mi Calm Calm - N/A   Clear
7:55 PM 46.4 °F 42.8 °F 87% 30.10 in 10.0 mi Calm Calm - N/A   Clear
8:15 PM 46.4 °F 41.0 °F 81% 30.10 in 10.0 mi Calm Calm - N/A   Clear
8:35 PM 46.4 °F 39.2 °F 76% 30.10 in 10.0 mi Calm Calm - N/A   Clear
8:55 PM 44.6 °F 37.4 °F 76% 30.11 in 10.0 mi Calm Calm - N/A   Clear
9:15 PM 44.6 °F 32.0 °F 61% 30.10 in 10.0 mi Calm Calm - N/A   Clear
9:35 PM 44.6 °F 30.2 °F 57% 30.10 in 10.0 mi Calm Calm - N/A   Clear
9:55 PM 42.8 °F 28.4 °F 57% 30.09 in 9.0 mi Calm Calm - N/A   Clear
10:15 PM 42.8 °F 28.4 °F 57% 30.09 in 5.0 mi Calm Calm - N/A   Haze
10:55 PM 42.8 °F 28.4 °F 57% 30.08 in 7.0 mi Calm Calm - N/A   Clear
11:15 PM 42.8 °F 28.4 °F 57% 30.08 in 10.0 mi Calm Calm - N/A   Clear
11:35 PM 42.8 °F 26.6 °F 53% 30.08 in 8.0 mi Calm Calm - N/A   Clear
11:55 PM 42.8 °F 26.6 °F 53% 30.08 in 10.0 mi Calm Calm - N/A   Clear